sensor_id;sensor_type;location;lat;lon;timestamp;temperature;humidity
19799;DHT22;10059;59.850;10.454;2022-08-30T00:00:48;11.40;99.90
19799;DHT22;10059;59.850;10.454;2022-08-30T00:03:35;11.10;99.90
19799;DHT22;10059;59.850;10.454;2022-08-30T00:06:03;11.30;99.90
19799;DHT22;10059;59.850;10.454;2022-08-30T00:08:31;11.10;99.90
19799;DHT22;10059;59.850;10.454;2022-08-30T00:10:58;11.10;99.90
19799;DHT22;10059;59.850;10.454;2022-08-30T00:13:26;10.80;99.90
19799;DHT22;10059;59.850;10.454;2022-08-30T00:15:53;10.70;99.90
19799;DHT22;10059;59.850;10.454;2022-08-30T00:18:20;10.60;99.90
19799;DHT22;10059;59.850;10.454;2022-08-30T00:20:49;10.60;99.90
19799;DHT22;10059;59.850;10.454;2022-08-30T00:23:18;10.70;99.90
19799;DHT22;10059;59.850;10.454;2022-08-30T00:25:45;10.80;99.90
19799;DHT22;10059;59.850;10.454;2022-08-30T00:28:12;10.60;99.90
19799;DHT22;10059;59.850;10.454;2022-08-30T00:30:40;10.60;99.90
19799;DHT22;10059;59.850;10.454;2022-08-30T00:33:07;10.70;99.90
19799;DHT22;10059;59.850;10.454;2022-08-30T00:35:34;10.70;99.90
19799;DHT22;10059;59.850;10.454;2022-08-30T00:38:04;10.60;99.90
19799;DHT22;10059;59.850;10.454;2022-08-30T00:40:31;10.80;99.90
19799;DHT22;10059;59.850;10.454;2022-08-30T00:43:00;10.80;99.90
19799;DHT22;10059;59.850;10.454;2022-08-30T00:45:30;11.00;99.90
19799;DHT22;10059;59.850;10.454;2022-08-30T00:47:58;11.00;99.90
19799;DHT22;10059;59.850;10.454;2022-08-30T00:50:28;11.00;99.90
19799;DHT22;10059;59.850;10.454;2022-08-30T00:52:59;11.00;99.90
19799;DHT22;10059;59.850;10.454;2022-08-30T00:55:28;11.00;99.90
19799;DHT22;10059;59.850;10.454;2022-08-30T00:57:58;11.30;99.90
19799;DHT22;10059;59.850;10.454;2022-08-30T01:00:26;11.20;99.90
19799;DHT22;10059;59.850;10.454;2022-08-30T01:02:53;11.20;99.90
19799;DHT22;10059;59.850;10.454;2022-08-30T01:05:20;11.20;99.90
19799;DHT22;10059;59.850;10.454;2022-08-30T01:07:48;11.10;99.90
19799;DHT22;10059;59.850;10.454;2022-08-30T01:10:16;10.80;99.90
19799;DHT22;10059;59.850;10.454;2022-08-30T01:12:44;10.70;99.90
19799;DHT22;10059;59.850;10.454;2022-08-30T01:15:13;10.70;99.90
19799;DHT22;10059;59.850;10.454;2022-08-30T01:17:42;10.90;99.90
19799;DHT22;10059;59.850;10.454;2022-08-30T01:20:11;10.80;99.90
19799;DHT22;10059;59.850;10.454;2022-08-30T01:22:43;10.70;99.90
19799;DHT22;10059;59.850;10.454;2022-08-30T01:25:17;11.00;99.90
19799;DHT22;10059;59.850;10.454;2022-08-30T01:27:48;10.90;99.90
19799;DHT22;10059;59.850;10.454;2022-08-30T01:30:16;10.80;99.90
19799;DHT22;10059;59.850;10.454;2022-08-30T01:32:45;10.90;99.90
19799;DHT22;10059;59.850;10.454;2022-08-30T01:35:14;10.90;99.90
19799;DHT22;10059;59.850;10.454;2022-08-30T01:37:43;10.70;99.90
19799;DHT22;10059;59.850;10.454;2022-08-30T01:40:13;10.70;99.90
19799;DHT22;10059;59.850;10.454;2022-08-30T01:42:40;10.70;99.90
19799;DHT22;10059;59.850;10.454;2022-08-30T01:45:08;10.80;99.90
19799;DHT22;10059;59.850;10.454;2022-08-30T01:47:35;10.60;99.90
19799;DHT22;10059;59.850;10.454;2022-08-30T01:50:04;10.80;99.90
19799;DHT22;10059;59.850;10.454;2022-08-30T01:52:32;10.90;99.90
19799;DHT22;10059;59.850;10.454;2022-08-30T01:54:59;11.00;99.90
19799;DHT22;10059;59.850;10.454;2022-08-30T01:57:27;11.10;99.90
19799;DHT22;10059;59.850;10.454;2022-08-30T01:59:55;11.20;99.90
19799;DHT22;10059;59.850;10.454;2022-08-30T02:02:24;11.20;99.90
19799;DHT22;10059;59.850;10.454;2022-08-30T02:04:53;11.10;99.90
19799;DHT22;10059;59.850;10.454;2022-08-30T02:07:21;11.00;99.90
19799;DHT22;10059;59.850;10.454;2022-08-30T02:09:48;10.90;99.90
19799;DHT22;10059;59.850;10.454;2022-08-30T02:12:16;10.90;99.90
19799;DHT22;10059;59.850;10.454;2022-08-30T02:14:45;10.90;99.90
19799;DHT22;10059;59.850;10.454;2022-08-30T02:17:13;11.00;99.90
19799;DHT22;10059;59.850;10.454;2022-08-30T02:19:40;11.10;99.90
19799;DHT22;10059;59.850;10.454;2022-08-30T02:22:08;11.00;99.90
19799;DHT22;10059;59.850;10.454;2022-08-30T02:24:35;11.00;99.90
19799;DHT22;10059;59.850;10.454;2022-08-30T02:27:02;10.90;99.90
19799;DHT22;10059;59.850;10.454;2022-08-30T02:29:29;10.90;99.90
19799;DHT22;10059;59.850;10.454;2022-08-30T02:31:57;10.70;99.90
19799;DHT22;10059;59.850;10.454;2022-08-30T02:34:24;10.80;99.90
19799;DHT22;10059;59.850;10.454;2022-08-30T02:36:51;10.80;99.90
19799;DHT22;10059;59.850;10.454;2022-08-30T02:39:18;10.80;99.90
19799;DHT22;10059;59.850;10.454;2022-08-30T02:41:45;10.80;99.90
19799;DHT22;10059;59.850;10.454;2022-08-30T02:44:13;10.80;99.90
19799;DHT22;10059;59.850;10.454;2022-08-30T02:46:40;10.90;99.90
19799;DHT22;10059;59.850;10.454;2022-08-30T02:49:08;10.90;99.90
19799;DHT22;10059;59.850;10.454;2022-08-30T02:51:35;11.00;99.90
19799;DHT22;10059;59.850;10.454;2022-08-30T02:54:03;10.90;99.90
19799;DHT22;10059;59.850;10.454;2022-08-30T02:56:31;11.00;99.90
19799;DHT22;10059;59.850;10.454;2022-08-30T02:58:58;11.00;99.90
19799;DHT22;10059;59.850;10.454;2022-08-30T03:01:25;10.90;99.90
19799;DHT22;10059;59.850;10.454;2022-08-30T03:03:52;11.00;99.90
19799;DHT22;10059;59.850;10.454;2022-08-30T03:06:20;11.00;99.90
19799;DHT22;10059;59.850;10.454;2022-08-30T03:08:47;10.80;99.90
19799;DHT22;10059;59.850;10.454;2022-08-30T03:11:14;10.90;99.90
19799;DHT22;10059;59.850;10.454;2022-08-30T03:13:41;10.90;99.90
19799;DHT22;10059;59.850;10.454;2022-08-30T03:16:08;11.00;99.90
19799;DHT22;10059;59.850;10.454;2022-08-30T03:18:35;10.90;99.90
19799;DHT22;10059;59.850;10.454;2022-08-30T03:21:02;10.80;99.90
19799;DHT22;10059;59.850;10.454;2022-08-30T03:23:30;10.90;99.90
19799;DHT22;10059;59.850;10.454;2022-08-30T03:25:57;10.90;99.90
19799;DHT22;10059;59.850;10.454;2022-08-30T03:28:24;10.80;99.90
19799;DHT22;10059;59.850;10.454;2022-08-30T03:30:51;10.80;99.90
19799;DHT22;10059;59.850;10.454;2022-08-30T03:33:18;10.60;99.90
19799;DHT22;10059;59.850;10.454;2022-08-30T03:35:44;10.40;99.90
19799;DHT22;10059;59.850;10.454;2022-08-30T03:38:12;10.30;99.90
19799;DHT22;10059;59.850;10.454;2022-08-30T03:40:41;10.60;99.90
19799;DHT22;10059;59.850;10.454;2022-08-30T03:43:08;10.70;99.90
19799;DHT22;10059;59.850;10.454;2022-08-30T03:45:34;10.70;99.90
19799;DHT22;10059;59.850;10.454;2022-08-30T03:48:02;10.70;99.90
19799;DHT22;10059;59.850;10.454;2022-08-30T03:50:29;10.70;99.90
19799;DHT22;10059;59.850;10.454;2022-08-30T03:52:57;10.70;99.90
19799;DHT22;10059;59.850;10.454;2022-08-30T03:55:26;10.70;99.90
19799;DHT22;10059;59.850;10.454;2022-08-30T03:57:56;10.50;99.90
19799;DHT22;10059;59.850;10.454;2022-08-30T04:00:23;10.60;99.90
19799;DHT22;10059;59.850;10.454;2022-08-30T04:02:50;10.70;99.90
19799;DHT22;10059;59.850;10.454;2022-08-30T04:05:17;10.70;99.90
19799;DHT22;10059;59.850;10.454;2022-08-30T04:07:44;10.60;99.90
19799;DHT22;10059;59.850;10.454;2022-08-30T04:10:11;10.70;99.90
19799;DHT22;10059;59.850;10.454;2022-08-30T04:12:38;10.70;99.90
19799;DHT22;10059;59.850;10.454;2022-08-30T04:15:07;10.80;99.90
19799;DHT22;10059;59.850;10.454;2022-08-30T04:17:35;10.90;99.90
19799;DHT22;10059;59.850;10.454;2022-08-30T04:20:03;10.80;99.90
19799;DHT22;10059;59.850;10.454;2022-08-30T04:22:30;10.80;99.90
19799;DHT22;10059;59.850;10.454;2022-08-30T04:24:57;10.80;99.90
19799;DHT22;10059;59.850;10.454;2022-08-30T04:27:24;10.80;99.90
19799;DHT22;10059;59.850;10.454;2022-08-30T04:29:51;10.70;99.90
19799;DHT22;10059;59.850;10.454;2022-08-30T04:32:20;10.60;99.90
19799;DHT22;10059;59.850;10.454;2022-08-30T04:34:47;10.80;99.90
19799;DHT22;10059;59.850;10.454;2022-08-30T04:37:14;10.90;99.90
19799;DHT22;10059;59.850;10.454;2022-08-30T04:39:41;11.00;99.90
19799;DHT22;10059;59.850;10.454;2022-08-30T04:42:08;11.00;99.90
19799;DHT22;10059;59.850;10.454;2022-08-30T04:44:36;11.00;99.90
19799;DHT22;10059;59.850;10.454;2022-08-30T04:47:03;11.00;99.90
19799;DHT22;10059;59.850;10.454;2022-08-30T04:49:31;11.10;99.90
19799;DHT22;10059;59.850;10.454;2022-08-30T04:51:58;11.10;99.90
19799;DHT22;10059;59.850;10.454;2022-08-30T04:54:25;11.20;99.90
19799;DHT22;10059;59.850;10.454;2022-08-30T04:56:52;11.30;99.90
19799;DHT22;10059;59.850;10.454;2022-08-30T04:59:19;11.50;99.90
19799;DHT22;10059;59.850;10.454;2022-08-30T05:01:46;11.60;99.90
19799;DHT22;10059;59.850;10.454;2022-08-30T05:04:14;11.50;99.90
19799;DHT22;10059;59.850;10.454;2022-08-30T05:06:42;11.70;99.90
19799;DHT22;10059;59.850;10.454;2022-08-30T05:09:09;12.20;99.90
19799;DHT22;10059;59.850;10.454;2022-08-30T05:11:37;12.10;99.90
19799;DHT22;10059;59.850;10.454;2022-08-30T05:14:04;12.30;99.90
19799;DHT22;10059;59.850;10.454;2022-08-30T05:16:31;12.40;99.90
19799;DHT22;10059;59.850;10.454;2022-08-30T05:18:58;12.50;99.90
19799;DHT22;10059;59.850;10.454;2022-08-30T05:21:26;12.70;99.90
19799;DHT22;10059;59.850;10.454;2022-08-30T05:23:55;12.80;99.90
19799;DHT22;10059;59.850;10.454;2022-08-30T05:26:24;12.90;99.90
19799;DHT22;10059;59.850;10.454;2022-08-30T05:28:52;13.10;99.90
19799;DHT22;10059;59.850;10.454;2022-08-30T05:31:21;13.10;99.90
19799;DHT22;10059;59.850;10.454;2022-08-30T05:33:50;13.10;99.90
19799;DHT22;10059;59.850;10.454;2022-08-30T05:36:19;13.20;99.90
19799;DHT22;10059;59.850;10.454;2022-08-30T05:38:46;13.30;99.90
19799;DHT22;10059;59.850;10.454;2022-08-30T05:41:17;13.40;99.90
19799;DHT22;10059;59.850;10.454;2022-08-30T05:43:44;13.40;99.90
19799;DHT22;10059;59.850;10.454;2022-08-30T05:46:12;13.50;99.90
19799;DHT22;10059;59.850;10.454;2022-08-30T05:48:44;13.80;99.90
19799;DHT22;10059;59.850;10.454;2022-08-30T05:51:13;13.90;99.90
19799;DHT22;10059;59.850;10.454;2022-08-30T05:53:41;13.70;99.90
19799;DHT22;10059;59.850;10.454;2022-08-30T05:56:10;13.80;99.90
19799;DHT22;10059;59.850;10.454;2022-08-30T05:58:39;13.90;99.90
19799;DHT22;10059;59.850;10.454;2022-08-30T06:01:06;14.10;99.90
19799;DHT22;10059;59.850;10.454;2022-08-30T06:03:33;14.00;99.90
19799;DHT22;10059;59.850;10.454;2022-08-30T06:06:00;13.90;99.90
19799;DHT22;10059;59.850;10.454;2022-08-30T06:08:28;13.80;99.90
19799;DHT22;10059;59.850;10.454;2022-08-30T06:10:55;14.00;99.90
19799;DHT22;10059;59.850;10.454;2022-08-30T06:13:21;14.00;99.90
19799;DHT22;10059;59.850;10.454;2022-08-30T06:15:50;14.00;99.90
19799;DHT22;10059;59.850;10.454;2022-08-30T06:18:17;14.10;99.90
19799;DHT22;10059;59.850;10.454;2022-08-30T06:20:44;14.20;99.90
19799;DHT22;10059;59.850;10.454;2022-08-30T06:23:13;14.70;99.90
19799;DHT22;10059;59.850;10.454;2022-08-30T06:25:42;14.90;99.90
19799;DHT22;10059;59.850;10.454;2022-08-30T06:28:10;15.00;99.90
19799;DHT22;10059;59.850;10.454;2022-08-30T06:30:39;15.00;99.90
19799;DHT22;10059;59.850;10.454;2022-08-30T06:33:09;14.90;99.90
19799;DHT22;10059;59.850;10.454;2022-08-30T06:35:36;14.90;99.90
19799;DHT22;10059;59.850;10.454;2022-08-30T06:38:03;14.80;99.90
19799;DHT22;10059;59.850;10.454;2022-08-30T06:40:30;14.80;99.90
19799;DHT22;10059;59.850;10.454;2022-08-30T06:42:57;14.80;99.90
19799;DHT22;10059;59.850;10.454;2022-08-30T06:45:24;14.70;99.90
19799;DHT22;10059;59.850;10.454;2022-08-30T06:47:51;15.00;99.90
19799;DHT22;10059;59.850;10.454;2022-08-30T06:50:19;15.60;99.90
19799;DHT22;10059;59.850;10.454;2022-08-30T06:52:46;16.30;99.90
19799;DHT22;10059;59.850;10.454;2022-08-30T06:55:15;16.80;99.90
19799;DHT22;10059;59.850;10.454;2022-08-30T06:57:42;16.90;99.90
19799;DHT22;10059;59.850;10.454;2022-08-30T07:00:13;16.90;99.90
19799;DHT22;10059;59.850;10.454;2022-08-30T07:02:40;17.20;99.90
19799;DHT22;10059;59.850;10.454;2022-08-30T07:05:08;17.20;99.90
19799;DHT22;10059;59.850;10.454;2022-08-30T07:07:38;17.90;99.90
19799;DHT22;10059;59.850;10.454;2022-08-30T07:10:06;17.90;99.90
19799;DHT22;10059;59.850;10.454;2022-08-30T07:12:33;18.00;99.90
19799;DHT22;10059;59.850;10.454;2022-08-30T07:15:02;18.70;99.90
19799;DHT22;10059;59.850;10.454;2022-08-30T07:17:29;18.80;99.90
19799;DHT22;10059;59.850;10.454;2022-08-30T07:20:13;18.80;99.90
19799;DHT22;10059;59.850;10.454;2022-08-30T07:22:42;17.80;99.90
19799;DHT22;10059;59.850;10.454;2022-08-30T07:25:09;17.50;99.90
19799;DHT22;10059;59.850;10.454;2022-08-30T07:27:35;17.20;99.90
19799;DHT22;10059;59.850;10.454;2022-08-30T07:30:03;17.00;99.90
19799;DHT22;10059;59.850;10.454;2022-08-30T07:32:30;17.00;99.90
19799;DHT22;10059;59.850;10.454;2022-08-30T07:34:57;16.90;99.90
19799;DHT22;10059;59.850;10.454;2022-08-30T07:37:24;16.80;99.90
19799;DHT22;10059;59.850;10.454;2022-08-30T07:39:53;16.70;99.90
19799;DHT22;10059;59.850;10.454;2022-08-30T07:42:20;16.50;99.90
19799;DHT22;10059;59.850;10.454;2022-08-30T07:44:47;16.50;99.90
19799;DHT22;10059;59.850;10.454;2022-08-30T07:47:13;16.70;99.90
19799;DHT22;10059;59.850;10.454;2022-08-30T07:49:41;16.70;99.90
19799;DHT22;10059;59.850;10.454;2022-08-30T07:52:08;17.00;99.90
19799;DHT22;10059;59.850;10.454;2022-08-30T07:54:35;17.20;99.90
19799;DHT22;10059;59.850;10.454;2022-08-30T07:57:03;17.40;99.90
19799;DHT22;10059;59.850;10.454;2022-08-30T07:59:30;16.80;99.90
19799;DHT22;10059;59.850;10.454;2022-08-30T08:01:57;16.30;99.90
19799;DHT22;10059;59.850;10.454;2022-08-30T08:04:24;16.40;99.90
19799;DHT22;10059;59.850;10.454;2022-08-30T08:06:51;16.70;99.90
19799;DHT22;10059;59.850;10.454;2022-08-30T08:09:19;16.90;99.90
19799;DHT22;10059;59.850;10.454;2022-08-30T08:11:46;16.90;99.90
19799;DHT22;10059;59.850;10.454;2022-08-30T08:14:14;17.10;99.90
19799;DHT22;10059;59.850;10.454;2022-08-30T08:16:41;17.20;99.90
19799;DHT22;10059;59.850;10.454;2022-08-30T08:19:09;17.40;99.90
19799;DHT22;10059;59.850;10.454;2022-08-30T08:21:37;18.30;99.90
19799;DHT22;10059;59.850;10.454;2022-08-30T08:24:04;18.80;99.90
19799;DHT22;10059;59.850;10.454;2022-08-30T08:26:33;19.60;99.90
19799;DHT22;10059;59.850;10.454;2022-08-30T08:29:00;20.20;99.90
19799;DHT22;10059;59.850;10.454;2022-08-30T08:31:28;20.40;99.90
19799;DHT22;10059;59.850;10.454;2022-08-30T08:33:56;20.20;99.90
19799;DHT22;10059;59.850;10.454;2022-08-30T08:36:23;20.50;99.90
19799;DHT22;10059;59.850;10.454;2022-08-30T08:38:50;20.90;99.90
19799;DHT22;10059;59.850;10.454;2022-08-30T08:41:27;21.40;99.90
19799;DHT22;10059;59.850;10.454;2022-08-30T08:43:57;22.10;99.90
19799;DHT22;10059;59.850;10.454;2022-08-30T08:46:29;22.10;99.90
19799;DHT22;10059;59.850;10.454;2022-08-30T08:49:02;22.00;99.90
19799;DHT22;10059;59.850;10.454;2022-08-30T08:51:32;22.00;99.90
19799;DHT22;10059;59.850;10.454;2022-08-30T08:54:21;22.10;99.90
19799;DHT22;10059;59.850;10.454;2022-08-30T08:56:49;21.90;99.90
19799;DHT22;10059;59.850;10.454;2022-08-30T08:59:16;21.60;99.90
19799;DHT22;10059;59.850;10.454;2022-08-30T09:01:46;21.30;99.90
19799;DHT22;10059;59.850;10.454;2022-08-30T09:04:15;21.30;99.90
19799;DHT22;10059;59.850;10.454;2022-08-30T09:06:47;22.10;99.90
19799;DHT22;10059;59.850;10.454;2022-08-30T09:09:19;22.00;99.90
19799;DHT22;10059;59.850;10.454;2022-08-30T09:11:47;21.40;99.90
19799;DHT22;10059;59.850;10.454;2022-08-30T09:14:17;21.70;99.90
19799;DHT22;10059;59.850;10.454;2022-08-30T09:16:55;21.70;99.90
19799;DHT22;10059;59.850;10.454;2022-08-30T09:19:35;21.90;99.90
19799;DHT22;10059;59.850;10.454;2022-08-30T09:22:11;22.00;99.90
19799;DHT22;10059;59.850;10.454;2022-08-30T09:24:41;21.70;99.90
19799;DHT22;10059;59.850;10.454;2022-08-30T09:27:18;21.40;99.90
19799;DHT22;10059;59.850;10.454;2022-08-30T09:29:57;20.90;99.90
19799;DHT22;10059;59.850;10.454;2022-08-30T09:32:28;20.80;99.90
19799;DHT22;10059;59.850;10.454;2022-08-30T09:34:56;20.70;99.90
19799;DHT22;10059;59.850;10.454;2022-08-30T09:37:27;20.90;99.90
19799;DHT22;10059;59.850;10.454;2022-08-30T09:39:55;21.50;99.90
19799;DHT22;10059;59.850;10.454;2022-08-30T09:42:23;21.60;99.90
19799;DHT22;10059;59.850;10.454;2022-08-30T09:44:52;21.10;99.90
19799;DHT22;10059;59.850;10.454;2022-08-30T09:47:37;21.00;99.90
19799;DHT22;10059;59.850;10.454;2022-08-30T09:50:07;21.40;99.90
19799;DHT22;10059;59.850;10.454;2022-08-30T09:52:44;21.10;99.90
19799;DHT22;10059;59.850;10.454;2022-08-30T09:55:23;21.10;99.90
19799;DHT22;10059;59.850;10.454;2022-08-30T09:57:56;21.40;99.90
19799;DHT22;10059;59.850;10.454;2022-08-30T10:00:29;22.40;99.90
19799;DHT22;10059;59.850;10.454;2022-08-30T10:03:13;22.20;99.90
19799;DHT22;10059;59.850;10.454;2022-08-30T10:05:50;22.00;99.90
19799;DHT22;10059;59.850;10.454;2022-08-30T10:08:25;21.90;99.90
19799;DHT22;10059;59.850;10.454;2022-08-30T10:10:58;21.10;99.90
19799;DHT22;10059;59.850;10.454;2022-08-30T10:13:50;20.90;99.90
19799;DHT22;10059;59.850;10.454;2022-08-30T10:16:29;21.30;99.90
19799;DHT22;10059;59.850;10.454;2022-08-30T10:19:09;21.40;99.90
19799;DHT22;10059;59.850;10.454;2022-08-30T10:21:42;21.30;99.90
19799;DHT22;10059;59.850;10.454;2022-08-30T10:24:12;21.70;99.90
19799;DHT22;10059;59.850;10.454;2022-08-30T10:26:46;21.60;99.90
19799;DHT22;10059;59.850;10.454;2022-08-30T10:29:15;21.50;99.90
19799;DHT22;10059;59.850;10.454;2022-08-30T10:31:48;21.80;99.90
19799;DHT22;10059;59.850;10.454;2022-08-30T10:34:22;21.50;99.90
19799;DHT22;10059;59.850;10.454;2022-08-30T10:36:55;21.10;99.90
19799;DHT22;10059;59.850;10.454;2022-08-30T10:39:27;21.10;99.90
19799;DHT22;10059;59.850;10.454;2022-08-30T10:42:03;20.40;99.90
19799;DHT22;10059;59.850;10.454;2022-08-30T10:44:36;20.40;99.90
19799;DHT22;10059;59.850;10.454;2022-08-30T10:47:11;20.90;99.90
19799;DHT22;10059;59.850;10.454;2022-08-30T10:49:46;20.80;99.90
19799;DHT22;10059;59.850;10.454;2022-08-30T10:52:24;21.50;99.90
19799;DHT22;10059;59.850;10.454;2022-08-30T10:54:56;22.10;99.90
19799;DHT22;10059;59.850;10.454;2022-08-30T10:57:24;22.30;99.90
19799;DHT22;10059;59.850;10.454;2022-08-30T11:00:00;22.60;99.90
19799;DHT22;10059;59.850;10.454;2022-08-30T11:02:49;22.50;99.90
19799;DHT22;10059;59.850;10.454;2022-08-30T11:05:35;22.80;99.90
19799;DHT22;10059;59.850;10.454;2022-08-30T11:08:15;21.90;99.90
19799;DHT22;10059;59.850;10.454;2022-08-30T11:11:00;21.60;99.90
19799;DHT22;10059;59.850;10.454;2022-08-30T11:13:30;21.70;99.90
19799;DHT22;10059;59.850;10.454;2022-08-30T11:16:02;21.50;99.90
19799;DHT22;10059;59.850;10.454;2022-08-30T11:18:32;21.10;99.90
19799;DHT22;10059;59.850;10.454;2022-08-30T11:21:20;21.70;99.90
19799;DHT22;10059;59.850;10.454;2022-08-30T11:24:02;22.70;99.90
19799;DHT22;10059;59.850;10.454;2022-08-30T11:26:53;23.30;99.90
19799;DHT22;10059;59.850;10.454;2022-08-30T11:29:39;23.40;99.90
19799;DHT22;10059;59.850;10.454;2022-08-30T11:35:37;22.50;99.90
19799;DHT22;10059;59.850;10.454;2022-08-30T11:38:17;22.50;99.90
19799;DHT22;10059;59.850;10.454;2022-08-30T11:40:51;22.00;99.90
19799;DHT22;10059;59.850;10.454;2022-08-30T11:43:51;22.10;99.90
19799;DHT22;10059;59.850;10.454;2022-08-30T11:46:34;21.20;99.90
19799;DHT22;10059;59.850;10.454;2022-08-30T11:52:08;21.10;99.90
19799;DHT22;10059;59.850;10.454;2022-08-30T11:54:47;20.50;99.90
19799;DHT22;10059;59.850;10.454;2022-08-30T11:57:25;20.50;99.90
19799;DHT22;10059;59.850;10.454;2022-08-30T12:00:03;20.50;99.90
19799;DHT22;10059;59.850;10.454;2022-08-30T12:02:49;19.90;99.90
19799;DHT22;10059;59.850;10.454;2022-08-30T12:05:45;19.90;99.90
19799;DHT22;10059;59.850;10.454;2022-08-30T12:08:48;19.60;99.90
19799;DHT22;10059;59.850;10.454;2022-08-30T12:14:41;19.80;99.90
19799;DHT22;10059;59.850;10.454;2022-08-30T12:17:23;20.00;99.90
19799;DHT22;10059;59.850;10.454;2022-08-30T12:20:15;19.90;99.90
19799;DHT22;10059;59.850;10.454;2022-08-30T12:22:43;19.80;99.90
19799;DHT22;10059;59.850;10.454;2022-08-30T12:25:21;20.20;99.90
19799;DHT22;10059;59.850;10.454;2022-08-30T12:27:49;20.40;99.90
19799;DHT22;10059;59.850;10.454;2022-08-30T12:30:25;21.20;99.90
19799;DHT22;10059;59.850;10.454;2022-08-30T12:32:53;21.30;99.90
19799;DHT22;10059;59.850;10.454;2022-08-30T12:35:22;20.80;99.90
19799;DHT22;10059;59.850;10.454;2022-08-30T12:37:56;20.50;99.90
19799;DHT22;10059;59.850;10.454;2022-08-30T12:40:24;20.30;99.90
19799;DHT22;10059;59.850;10.454;2022-08-30T12:42:53;20.10;99.90
19799;DHT22;10059;59.850;10.454;2022-08-30T12:45:23;20.10;99.90
19799;DHT22;10059;59.850;10.454;2022-08-30T12:47:55;20.00;99.90
19799;DHT22;10059;59.850;10.454;2022-08-30T12:50:25;20.10;99.90
19799;DHT22;10059;59.850;10.454;2022-08-30T12:52:57;20.10;99.90
19799;DHT22;10059;59.850;10.454;2022-08-30T12:55:27;19.90;99.90
19799;DHT22;10059;59.850;10.454;2022-08-30T12:57:58;20.20;99.90
19799;DHT22;10059;59.850;10.454;2022-08-30T13:00:28;20.50;99.90
19799;DHT22;10059;59.850;10.454;2022-08-30T13:02:58;20.70;99.90
19799;DHT22;10059;59.850;10.454;2022-08-30T13:05:34;20.60;99.90
19799;DHT22;10059;59.850;10.454;2022-08-30T13:08:14;20.50;99.90
19799;DHT22;10059;59.850;10.454;2022-08-30T13:10:59;20.70;99.90
19799;DHT22;10059;59.850;10.454;2022-08-30T13:13:36;20.60;99.90
19799;DHT22;10059;59.850;10.454;2022-08-30T13:16:21;20.60;99.90
19799;DHT22;10059;59.850;10.454;2022-08-30T13:18:51;21.00;99.90
19799;DHT22;10059;59.850;10.454;2022-08-30T13:21:22;20.50;99.90
19799;DHT22;10059;59.850;10.454;2022-08-30T13:23:53;20.20;99.90
19799;DHT22;10059;59.850;10.454;2022-08-30T13:26:21;20.80;99.90
19799;DHT22;10059;59.850;10.454;2022-08-30T13:28:50;21.10;99.90
19799;DHT22;10059;59.850;10.454;2022-08-30T13:31:18;21.30;99.90
19799;DHT22;10059;59.850;10.454;2022-08-30T13:33:45;21.10;99.90
19799;DHT22;10059;59.850;10.454;2022-08-30T13:36:13;21.40;99.90
19799;DHT22;10059;59.850;10.454;2022-08-30T13:38:41;21.60;99.90
19799;DHT22;10059;59.850;10.454;2022-08-30T13:41:08;21.80;99.90
19799;DHT22;10059;59.850;10.454;2022-08-30T13:43:35;21.60;99.90
19799;DHT22;10059;59.850;10.454;2022-08-30T13:46:03;21.60;99.90
19799;DHT22;10059;59.850;10.454;2022-08-30T13:48:30;21.10;99.90
19799;DHT22;10059;59.850;10.454;2022-08-30T13:50:57;21.10;99.90
19799;DHT22;10059;59.850;10.454;2022-08-30T13:53:26;21.10;99.90
19799;DHT22;10059;59.850;10.454;2022-08-30T13:55:52;20.50;99.90
19799;DHT22;10059;59.850;10.454;2022-08-30T13:58:19;19.90;99.90
19799;DHT22;10059;59.850;10.454;2022-08-30T14:00:46;20.20;99.90
19799;DHT22;10059;59.850;10.454;2022-08-30T14:03:14;20.60;99.90
19799;DHT22;10059;59.850;10.454;2022-08-30T14:05:42;20.60;99.90
19799;DHT22;10059;59.850;10.454;2022-08-30T14:08:11;20.70;99.90
19799;DHT22;10059;59.850;10.454;2022-08-30T14:10:40;20.30;99.90
19799;DHT22;10059;59.850;10.454;2022-08-30T14:13:07;19.80;99.90
19799;DHT22;10059;59.850;10.454;2022-08-30T14:15:35;19.70;99.90
19799;DHT22;10059;59.850;10.454;2022-08-30T14:18:03;19.40;99.90
19799;DHT22;10059;59.850;10.454;2022-08-30T14:20:31;19.40;99.90
19799;DHT22;10059;59.850;10.454;2022-08-30T14:23:00;19.10;99.90
19799;DHT22;10059;59.850;10.454;2022-08-30T14:25:27;19.50;99.90
19799;DHT22;10059;59.850;10.454;2022-08-30T14:27:55;19.60;99.90
19799;DHT22;10059;59.850;10.454;2022-08-30T14:30:23;19.80;99.90
19799;DHT22;10059;59.850;10.454;2022-08-30T14:32:50;19.60;99.90
19799;DHT22;10059;59.850;10.454;2022-08-30T14:35:17;19.70;99.90
19799;DHT22;10059;59.850;10.454;2022-08-30T14:37:45;19.70;99.90
19799;DHT22;10059;59.850;10.454;2022-08-30T14:40:12;19.60;99.90
19799;DHT22;10059;59.850;10.454;2022-08-30T14:42:39;19.80;99.90
19799;DHT22;10059;59.850;10.454;2022-08-30T14:45:09;20.20;99.90
19799;DHT22;10059;59.850;10.454;2022-08-30T14:47:36;20.40;99.90
19799;DHT22;10059;59.850;10.454;2022-08-30T14:50:04;21.00;99.90
19799;DHT22;10059;59.850;10.454;2022-08-30T14:52:31;21.40;99.90
19799;DHT22;10059;59.850;10.454;2022-08-30T14:54:58;21.30;99.90
19799;DHT22;10059;59.850;10.454;2022-08-30T14:57:25;21.50;99.90
19799;DHT22;10059;59.850;10.454;2022-08-30T14:59:52;21.10;99.90
19799;DHT22;10059;59.850;10.454;2022-08-30T15:02:20;20.80;99.90
19799;DHT22;10059;59.850;10.454;2022-08-30T15:04:47;20.70;99.90
19799;DHT22;10059;59.850;10.454;2022-08-30T15:07:14;20.50;99.90
19799;DHT22;10059;59.850;10.454;2022-08-30T15:09:42;20.20;99.90
19799;DHT22;10059;59.850;10.454;2022-08-30T15:12:09;20.30;99.90
19799;DHT22;10059;59.850;10.454;2022-08-30T15:14:36;20.20;99.90
19799;DHT22;10059;59.850;10.454;2022-08-30T15:17:03;20.20;99.90
19799;DHT22;10059;59.850;10.454;2022-08-30T15:19:32;20.50;99.90
19799;DHT22;10059;59.850;10.454;2022-08-30T15:22:00;20.40;99.90
19799;DHT22;10059;59.850;10.454;2022-08-30T15:24:27;20.70;99.90
19799;DHT22;10059;59.850;10.454;2022-08-30T15:26:54;20.70;99.90
19799;DHT22;10059;59.850;10.454;2022-08-30T15:29:21;20.60;99.90
19799;DHT22;10059;59.850;10.454;2022-08-30T15:31:49;21.00;99.90
19799;DHT22;10059;59.850;10.454;2022-08-30T15:34:18;21.20;99.90
19799;DHT22;10059;59.850;10.454;2022-08-30T15:36:47;21.30;99.90
19799;DHT22;10059;59.850;10.454;2022-08-30T15:39:15;21.40;99.90
19799;DHT22;10059;59.850;10.454;2022-08-30T15:41:43;21.50;99.90